sensor_id;sensor_type;location;lat;lon;timestamp;pressure;altitude;pressure_sealevel;temperature;humidity
52653;BME280;39353;42.864;12.014;2023-04-03T00:04:21;96829.89;;;21.79;49.62
52653;BME280;39353;42.864;12.014;2023-04-03T00:10:08;96825.49;;;21.77;49.48
52653;BME280;39353;42.864;12.014;2023-04-03T00:15:54;96823.16;;;21.74;49.49
52653;BME280;39353;42.864;12.014;2023-04-03T00:25:02;96818.13;;;21.69;49.46
52653;BME280;39353;42.864;12.014;2023-04-03T00:30:33;96815.39;;;21.67;49.74
52653;BME280;39353;42.864;12.014;2023-04-03T00:33:14;96809.00;;;21.66;49.72
52653;BME280;39353;42.864;12.014;2023-04-03T00:35:41;96807.02;;;21.66;49.64
52653;BME280;39353;42.864;12.014;2023-04-03T00:38:09;96803.45;;;21.65;49.61
52653;BME280;39353;42.864;12.014;2023-04-03T00:40:50;96797.66;;;21.64;49.67
52653;BME280;39353;42.864;12.014;2023-04-03T00:43:32;96796.84;;;21.63;49.68
52653;BME280;39353;42.864;12.014;2023-04-03T00:46:13;96791.62;;;21.62;49.70
52653;BME280;39353;42.864;12.014;2023-04-03T00:48:46;96790.52;;;21.61;49.73
52653;BME280;39353;42.864;12.014;2023-04-03T00:51:29;96787.78;;;21.60;49.71
52653;BME280;39353;42.864;12.014;2023-04-03T00:54:03;96785.33;;;21.60;49.77
52653;BME280;39353;42.864;12.014;2023-04-03T00:56:32;96784.98;;;21.58;49.69
52653;BME280;39353;42.864;12.014;2023-04-03T00:59:19;96785.41;;;21.58;49.61
52653;BME280;39353;42.864;12.014;2023-04-03T01:01:51;96781.48;;;21.58;49.76
52653;BME280;39353;42.864;12.014;2023-04-03T01:07:22;96785.02;;;21.56;49.73
52653;BME280;39353;42.864;12.014;2023-04-03T01:09:57;96779.38;;;21.56;49.74
52653;BME280;39353;42.864;12.014;2023-04-03T01:12:32;96783.31;;;21.55;49.83
52653;BME280;39353;42.864;12.014;2023-04-03T01:22:49;96778.48;;;21.54;49.74
52653;BME280;39353;42.864;12.014;2023-04-03T01:32:04;96769.73;;;21.54;49.95
52653;BME280;39353;42.864;12.014;2023-04-03T01:34:31;96767.84;;;21.52;50.02
52653;BME280;39353;42.864;12.014;2023-04-03T01:36:59;96771.79;;;21.52;50.06
52653;BME280;39353;42.864;12.014;2023-04-03T01:39:40;96768.46;;;21.53;49.98
52653;BME280;39353;42.864;12.014;2023-04-03T01:42:21;96767.88;;;21.53;49.89
52653;BME280;39353;42.864;12.014;2023-04-03T01:44:48;96764.41;;;21.52;50.03
52653;BME280;39353;42.864;12.014;2023-04-03T01:47:29;96764.67;;;21.51;50.04
52653;BME280;39353;42.864;12.014;2023-04-03T01:49:58;96758.38;;;21.50;50.01
52653;BME280;39353;42.864;12.014;2023-04-03T01:52:26;96762.08;;;21.49;50.02
52653;BME280;39353;42.864;12.014;2023-04-03T01:54:53;96762.13;;;21.49;50.08
52653;BME280;39353;42.864;12.014;2023-04-03T01:57:34;96758.13;;;21.48;50.09
52653;BME280;39353;42.864;12.014;2023-04-03T02:00:02;96755.87;;;21.47;50.08
52653;BME280;39353;42.864;12.014;2023-04-03T02:02:53;96757.16;;;21.46;50.00
52653;BME280;39353;42.864;12.014;2023-04-03T02:05:20;96759.89;;;21.46;50.17
52653;BME280;39353;42.864;12.014;2023-04-03T02:07:48;96758.56;;;21.46;50.16
52653;BME280;39353;42.864;12.014;2023-04-03T02:10:29;96751.27;;;21.43;50.25
52653;BME280;39353;42.864;12.014;2023-04-03T02:12:59;96747.08;;;21.43;50.10
52653;BME280;39353;42.864;12.014;2023-04-03T02:15:26;96745.80;;;21.42;50.06
52653;BME280;39353;42.864;12.014;2023-04-03T02:17:54;96747.77;;;21.41;50.10
52653;BME280;39353;42.864;12.014;2023-04-03T02:20:22;96745.71;;;21.40;50.14
52653;BME280;39353;42.864;12.014;2023-04-03T02:23:03;96737.68;;;21.39;50.09
52653;BME280;39353;42.864;12.014;2023-04-03T02:25:32;96741.54;;;21.39;50.13
52653;BME280;39353;42.864;12.014;2023-04-03T02:28:13;96740.73;;;21.38;50.22
52653;BME280;39353;42.864;12.014;2023-04-03T02:30:54;96740.11;;;21.38;50.20
52653;BME280;39353;42.864;12.014;2023-04-03T02:33:22;96742.61;;;21.37;50.17
52653;BME280;39353;42.864;12.014;2023-04-03T02:36:07;96742.36;;;21.36;50.24
52653;BME280;39353;42.864;12.014;2023-04-03T02:38:35;96742.73;;;21.35;50.13
52653;BME280;39353;42.864;12.014;2023-04-03T02:41:06;96745.41;;;21.36;50.12
52653;BME280;39353;42.864;12.014;2023-04-03T02:43:34;96747.70;;;21.35;50.11
52653;BME280;39353;42.864;12.014;2023-04-03T02:46:15;96747.91;;;21.35;50.10
52653;BME280;39353;42.864;12.014;2023-04-03T02:48:57;96745.67;;;21.34;49.90
52653;BME280;39353;42.864;12.014;2023-04-03T02:51:24;96749.16;;;21.34;49.95
52653;BME280;39353;42.864;12.014;2023-04-03T02:53:52;96752.20;;;21.33;49.90
52653;BME280;39353;42.864;12.014;2023-04-03T02:56:36;96748.59;;;21.32;50.00
52653;BME280;39353;42.864;12.014;2023-04-03T03:02:11;96750.09;;;21.30;50.25
52653;BME280;39353;42.864;12.014;2023-04-03T03:04:53;96753.36;;;21.30;50.05
52653;BME280;39353;42.864;12.014;2023-04-03T03:07:35;96750.30;;;21.30;50.11
52653;BME280;39353;42.864;12.014;2023-04-03T03:10:03;96745.64;;;21.28;50.03
52653;BME280;39353;42.864;12.014;2023-04-03T03:12:47;96744.80;;;21.27;50.14
52653;BME280;39353;42.864;12.014;2023-04-03T03:15:28;96743.63;;;21.26;50.10
52653;BME280;39353;42.864;12.014;2023-04-03T03:17:55;96740.35;;;21.26;50.12
52653;BME280;39353;42.864;12.014;2023-04-03T03:20:36;96744.34;;;21.26;49.96
52653;BME280;39353;42.864;12.014;2023-04-03T03:23:17;96742.76;;;21.26;50.19
52653;BME280;39353;42.864;12.014;2023-04-03T03:25:45;96743.67;;;21.26;50.10
52653;BME280;39353;42.864;12.014;2023-04-03T03:28:26;96738.48;;;21.25;50.24
52653;BME280;39353;42.864;12.014;2023-04-03T03:31:09;96735.70;;;21.24;50.15
52653;BME280;39353;42.864;12.014;2023-04-03T03:33:38;96740.65;;;21.24;50.32
52653;BME280;39353;42.864;12.014;2023-04-03T03:36:05;96745.17;;;21.23;50.10
52653;BME280;39353;42.864;12.014;2023-04-03T03:38:46;96742.48;;;21.23;50.10
52653;BME280;39353;42.864;12.014;2023-04-03T03:41:27;96744.34;;;21.23;50.18
52653;BME280;39353;42.864;12.014;2023-04-03T03:44:08;96751.11;;;21.22;50.22
52653;BME280;39353;42.864;12.014;2023-04-03T03:46:49;96748.30;;;21.22;50.18
52653;BME280;39353;42.864;12.014;2023-04-03T03:49:30;96745.52;;;21.22;50.13
52653;BME280;39353;42.864;12.014;2023-04-03T03:52:02;96737.55;;;21.21;50.17
52653;BME280;39353;42.864;12.014;2023-04-03T03:54:29;96737.21;;;21.21;50.10
52653;BME280;39353;42.864;12.014;2023-04-03T03:56:57;96737.38;;;21.21;50.04
52653;BME280;39353;42.864;12.014;2023-04-03T03:59:38;96733.70;;;21.20;50.10
52653;BME280;39353;42.864;12.014;2023-04-03T04:02:22;96729.44;;;21.19;50.22
52653;BME280;39353;42.864;12.014;2023-04-03T04:05:04;96728.73;;;21.19;50.12
52653;BME280;39353;42.864;12.014;2023-04-03T04:07:45;96722.11;;;21.18;50.01
52653;BME280;39353;42.864;12.014;2023-04-03T04:10:28;96721.45;;;21.18;50.09
52653;BME280;39353;42.864;12.014;2023-04-03T04:12:56;96725.83;;;21.18;50.07
52653;BME280;39353;42.864;12.014;2023-04-03T04:15:39;96725.08;;;21.19;49.96
52653;BME280;39353;42.864;12.014;2023-04-03T04:18:22;96723.70;;;21.19;49.94
52653;BME280;39353;42.864;12.014;2023-04-03T04:21:03;96722.78;;;21.19;50.07
52653;BME280;39353;42.864;12.014;2023-04-03T04:23:31;96728.13;;;21.18;50.04
52653;BME280;39353;42.864;12.014;2023-04-03T04:25:59;96727.23;;;21.17;50.03
52653;BME280;39353;42.864;12.014;2023-04-03T04:28:28;96728.30;;;21.16;50.06
52653;BME280;39353;42.864;12.014;2023-04-03T04:31:10;96726.81;;;21.15;50.08
52653;BME280;39353;42.864;12.014;2023-04-03T04:34:00;96730.18;;;21.15;50.12
52653;BME280;39353;42.864;12.014;2023-04-03T04:36:27;96727.81;;;21.13;50.20
52653;BME280;39353;42.864;12.014;2023-04-03T04:39:12;96728.73;;;21.13;50.15
52653;BME280;39353;42.864;12.014;2023-04-03T04:41:53;96732.33;;;21.12;50.18
52653;BME280;39353;42.864;12.014;2023-04-03T04:44:34;96729.20;;;21.12;50.15
52653;BME280;39353;42.864;12.014;2023-04-03T04:47:02;96724.02;;;21.11;50.05
52653;BME280;39353;42.864;12.014;2023-04-03T04:49:43;96722.58;;;21.11;50.11
52653;BME280;39353;42.864;12.014;2023-04-03T04:52:10;96720.56;;;21.10;50.15
52653;BME280;39353;42.864;12.014;2023-04-03T04:54:40;96721.81;;;21.10;50.19
52653;BME280;39353;42.864;12.014;2023-04-03T04:57:22;96723.98;;;21.09;50.04
52653;BME280;39353;42.864;12.014;2023-04-03T05:00:04;96726.52;;;21.09;50.22
52653;BME280;39353;42.864;12.014;2023-04-03T05:02:32;96728.98;;;21.08;49.97
52653;BME280;39353;42.864;12.014;2023-04-03T05:05:13;96729.20;;;21.08;50.20
52653;BME280;39353;42.864;12.014;2023-04-03T05:07:56;96729.45;;;21.08;50.19
52653;BME280;39353;42.864;12.014;2023-04-03T05:10:23;96730.64;;;21.07;50.19
52653;BME280;39353;42.864;12.014;2023-04-03T05:13:04;96732.23;;;21.07;50.18
52653;BME280;39353;42.864;12.014;2023-04-03T05:15:46;96729.70;;;21.06;50.17
52653;BME280;39353;42.864;12.014;2023-04-03T05:18:15;96732.98;;;21.06;50.39
52653;BME280;39353;42.864;12.014;2023-04-03T05:20:58;96731.88;;;21.05;50.14
52653;BME280;39353;42.864;12.014;2023-04-03T05:23:39;96732.20;;;21.05;50.34
52653;BME280;39353;42.864;12.014;2023-04-03T05:26:22;96731.73;;;21.06;50.35
52653;BME280;39353;42.864;12.014;2023-04-03T05:29:04;96730.02;;;21.05;50.18
52653;BME280;39353;42.864;12.014;2023-04-03T05:31:31;96732.86;;;21.06;50.28
52653;BME280;39353;42.864;12.014;2023-04-03T05:33:59;96732.91;;;21.06;50.38
52653;BME280;39353;42.864;12.014;2023-04-03T05:36:41;96732.36;;;21.05;50.26
52653;BME280;39353;42.864;12.014;2023-04-03T05:39:23;96732.58;;;21.05;50.31
52653;BME280;39353;42.864;12.014;2023-04-03T05:42:05;96731.98;;;21.06;50.32
52653;BME280;39353;42.864;12.014;2023-04-03T05:44:48;96734.50;;;21.06;50.40
52653;BME280;39353;42.864;12.014;2023-04-03T05:47:18;96733.68;;;21.06;50.30
52653;BME280;39353;42.864;12.014;2023-04-03T05:49:47;96735.11;;;21.06;50.32
52653;BME280;39353;42.864;12.014;2023-04-03T05:54:49;96738.29;;;21.07;50.30
52653;BME280;39353;42.864;12.014;2023-04-03T05:57:21;96742.27;;;21.07;50.39
52653;BME280;39353;42.864;12.014;2023-04-03T05:59:48;96741.15;;;21.08;50.37
52653;BME280;39353;42.864;12.014;2023-04-03T06:02:18;96739.06;;;21.08;50.47
52653;BME280;39353;42.864;12.014;2023-04-03T06:04:47;96743.42;;;21.08;50.50
52653;BME280;39353;42.864;12.014;2023-04-03T06:07:17;96746.01;;;21.09;50.45
52653;BME280;39353;42.864;12.014;2023-04-03T06:10:04;96746.40;;;21.08;50.44
52653;BME280;39353;42.864;12.014;2023-04-03T06:12:32;96748.05;;;21.10;50.34
52653;BME280;39353;42.864;12.014;2023-04-03T06:14:59;96746.63;;;21.10;50.15
52653;BME280;39353;42.864;12.014;2023-04-03T06:17:42;96739.30;;;21.12;50.19
52653;BME280;39353;42.864;12.014;2023-04-03T06:20:24;96745.94;;;21.14;50.24
52653;BME280;39353;42.864;12.014;2023-04-03T06:22:51;96740.95;;;21.16;50.13
52653;BME280;39353;42.864;12.014;2023-04-03T06:25:32;96742.88;;;21.17;50.26
52653;BME280;39353;42.864;12.014;2023-04-03T06:28:14;96745.31;;;21.19;50.20
52653;BME280;39353;42.864;12.014;2023-04-03T06:30:59;96748.40;;;21.18;49.28
52653;BME280;39353;42.864;12.014;2023-04-03T06:33:40;96757.80;;;21.15;49.16
52653;BME280;39353;42.864;12.014;2023-04-03T06:36:13;96762.23;;;21.16;49.68
52653;BME280;39353;42.864;12.014;2023-04-03T06:38:40;96763.05;;;21.16;49.61
52653;BME280;39353;42.864;12.014;2023-04-03T06:41:07;96759.51;;;21.16;49.81
52653;BME280;39353;42.864;12.014;2023-04-03T06:43:35;96763.28;;;21.17;49.76
52653;BME280;39353;42.864;12.014;2023-04-03T06:46:03;96767.24;;;21.18;49.92
52653;BME280;39353;42.864;12.014;2023-04-03T06:48:45;96765.25;;;21.20;49.91
52653;BME280;39353;42.864;12.014;2023-04-03T06:51:22;96763.11;;;21.22;49.88
52653;BME280;39353;42.864;12.014;2023-04-03T06:53:51;96768.77;;;21.24;49.92
52653;BME280;39353;42.864;12.014;2023-04-03T06:56:22;96768.15;;;21.26;49.10
52653;BME280;39353;42.864;12.014;2023-04-03T06:58:49;96766.64;;;21.24;49.22
52653;BME280;39353;42.864;12.014;2023-04-03T07:01:20;96772.68;;;21.24;47.58
52653;BME280;39353;42.864;12.014;2023-04-03T07:04:02;96770.23;;;21.06;44.02
52653;BME280;39353;42.864;12.014;2023-04-03T07:06:30;96772.75;;;21.00;45.30
52653;BME280;39353;42.864;12.014;2023-04-03T07:08:58;96772.77;;;21.02;46.83
52653;BME280;39353;42.864;12.014;2023-04-03T07:11:40;96777.98;;;21.06;47.35
52653;BME280;39353;42.864;12.014;2023-04-03T07:14:07;96775.39;;;21.10;47.50
52653;BME280;39353;42.864;12.014;2023-04-03T07:16:36;96781.02;;;21.14;47.69
52653;BME280;39353;42.864;12.014;2023-04-03T07:19:04;96787.39;;;21.16;48.04
52653;BME280;39353;42.864;12.014;2023-04-03T07:21:31;96789.94;;;21.18;48.32
52653;BME280;39353;42.864;12.014;2023-04-03T07:24:13;96788.96;;;21.19;48.32
52653;BME280;39353;42.864;12.014;2023-04-03T07:26:41;96782.44;;;21.20;48.55
52653;BME280;39353;42.864;12.014;2023-04-03T07:29:08;96795.11;;;21.21;48.35
52653;BME280;39353;42.864;12.014;2023-04-03T07:31:49;96789.16;;;21.23;48.57
52653;BME280;39353;42.864;12.014;2023-04-03T07:34:32;96788.71;;;21.26;48.75
52653;BME280;39353;42.864;12.014;2023-04-03T07:37:14;96792.89;;;21.31;49.07
52653;BME280;39353;42.864;12.014;2023-04-03T07:39:55;96795.86;;;21.34;49.03
52653;BME280;39353;42.864;12.014;2023-04-03T07:42:38;96793.08;;;21.36;48.27
52653;BME280;39353;42.864;12.014;2023-04-03T07:45:08;96792.05;;;21.34;47.75
52653;BME280;39353;42.864;12.014;2023-04-03T07:47:35;96783.64;;;21.33;48.06
52653;BME280;39353;42.864;12.014;2023-04-03T07:50:18;96786.59;;;21.34;48.39
52653;BME280;39353;42.864;12.014;2023-04-03T07:53:02;96784.92;;;21.35;48.54
52653;BME280;39353;42.864;12.014;2023-04-03T07:55:46;96787.38;;;21.36;48.36
52653;BME280;39353;42.864;12.014;2023-04-03T07:58:16;96785.35;;;21.35;48.16
52653;BME280;39353;42.864;12.014;2023-04-03T08:00:57;96781.20;;;21.35;48.00
52653;BME280;39353;42.864;12.014;2023-04-03T08:03:39;96780.64;;;21.34;47.78
52653;BME280;39353;42.864;12.014;2023-04-03T08:06:22;96780.95;;;21.33;47.38
52653;BME280;39353;42.864;12.014;2023-04-03T08:08:57;96783.91;;;21.30;46.71
52653;BME280;39353;42.864;12.014;2023-04-03T08:11:39;96781.30;;;21.27;46.54
52653;BME280;39353;42.864;12.014;2023-04-03T08:14:07;96774.03;;;21.26;46.66
52653;BME280;39353;42.864;12.014;2023-04-03T08:16:34;96775.08;;;21.26;46.55
52653;BME280;39353;42.864;12.014;2023-04-03T08:19:03;96778.27;;;21.25;46.60
52653;BME280;39353;42.864;12.014;2023-04-03T08:21:44;96774.45;;;21.25;46.55
52653;BME280;39353;42.864;12.014;2023-04-03T08:24:14;96783.93;;;21.24;46.42
52653;BME280;39353;42.864;12.014;2023-04-03T08:26:56;96791.36;;;21.24;46.44
52653;BME280;39353;42.864;12.014;2023-04-03T08:29:25;96788.21;;;21.26;46.81
52653;BME280;39353;42.864;12.014;2023-04-03T08:32:11;96792.73;;;21.27;47.25
52653;BME280;39353;42.864;12.014;2023-04-03T08:34:40;96795.00;;;21.30;47.22
52653;BME280;39353;42.864;12.014;2023-04-03T08:37:07;96792.59;;;21.34;47.21
52653;BME280;39353;42.864;12.014;2023-04-03T08:39:35;96794.30;;;21.38;47.46
52653;BME280;39353;42.864;12.014;2023-04-03T08:45:51;96798.70;;;21.42;47.18
52653;BME280;39353;42.864;12.014;2023-04-03T08:48:29;96801.63;;;21.41;47.40
52653;BME280;39353;42.864;12.014;2023-04-03T08:51:15;96802.48;;;21.40;47.23
52653;BME280;39353;42.864;12.014;2023-04-03T08:56:24;96798.87;;;21.37;47.35
52653;BME280;39353;42.864;12.014;2023-04-03T08:59:15;96804.05;;;21.36;47.58
52653;BME280;39353;42.864;12.014;2023-04-03T09:01:47;96804.74;;;21.35;47.52
52653;BME280;39353;42.864;12.014;2023-04-03T09:04:31;96800.61;;;21.34;47.39
52653;BME280;39353;42.864;12.014;2023-04-03T09:07:22;96800.77;;;21.32;47.62
52653;BME280;39353;42.864;12.014;2023-04-03T09:10:07;96804.77;;;21.31;47.68
52653;BME280;39353;42.864;12.014;2023-04-03T09:13:13;96801.79;;;21.31;47.82
52653;BME280;39353;42.864;12.014;2023-04-03T09:15:47;96801.86;;;21.33;47.86
52653;BME280;39353;42.864;12.014;2023-04-03T09:18:30;96802.05;;;21.35;48.10
52653;BME280;39353;42.864;12.014;2023-04-03T09:21:28;96801.73;;;21.35;48.46
52653;BME280;39353;42.864;12.014;2023-04-03T09:24:02;96802.08;;;21.34;48.14
52653;BME280;39353;42.864;12.014;2023-04-03T09:26:54;96800.70;;;21.31;48.33
52653;BME280;39353;42.864;12.014;2023-04-03T09:29:24;96802.67;;;21.29;48.31
52653;BME280;39353;42.864;12.014;2023-04-03T09:32:02;96798.68;;;21.27;47.97
52653;BME280;39353;42.864;12.014;2023-04-03T09:34:36;96807.42;;;21.29;48.09
52653;BME280;39353;42.864;12.014;2023-04-03T09:43:26;96809.30;;;21.31;48.13
52653;BME280;39353;42.864;12.014;2023-04-03T09:45:55;96811.02;;;21.31;48.25
52653;BME280;39353;42.864;12.014;2023-04-03T09:48:38;96802.56;;;21.33;48.11
52653;BME280;39353;42.864;12.014;2023-04-03T09:54:39;96797.67;;;21.39;48.10
52653;BME280;39353;42.864;12.014;2023-04-03T10:00:34;96795.68;;;21.38;47.57
52653;BME280;39353;42.864;12.014;2023-04-03T10:06:53;96797.35;;;21.37;47.78
52653;BME280;39353;42.864;12.014;2023-04-03T10:09:38;96790.62;;;21.36;47.60
52653;BME280;39353;42.864;12.014;2023-04-03T10:24:50;96786.80;;;21.33;47.55
52653;BME280;39353;42.864;12.014;2023-04-03T10:42:09;96785.38;;;21.23;47.39
52653;BME280;39353;42.864;12.014;2023-04-03T10:45:15;96782.91;;;21.23;47.43
52653;BME280;39353;42.864;12.014;2023-04-03T10:56:44;96776.08;;;21.19;47.63
52653;BME280;39353;42.864;12.014;2023-04-03T10:59:38;96770.85;;;21.19;47.68
52653;BME280;39353;42.864;12.014;2023-04-03T11:02:27;96768.70;;;21.18;47.65
52653;BME280;39353;42.864;12.014;2023-04-03T11:05:44;96766.79;;;21.18;47.62
52653;BME280;39353;42.864;12.014;2023-04-03T11:08:36;96759.60;;;21.16;47.49
52653;BME280;39353;42.864;12.014;2023-04-03T11:11:30;96759.70;;;21.15;47.30
52653;BME280;39353;42.864;12.014;2023-04-03T11:16:48;96758.90;;;21.16;47.33
52653;BME280;39353;42.864;12.014;2023-04-03T11:19:35;96759.73;;;21.16;47.23
52653;BME280;39353;42.864;12.014;2023-04-03T11:22:11;96754.21;;;21.16;47.40
52653;BME280;39353;42.864;12.014;2023-04-03T11:24:54;96752.02;;;21.16;47.15
52653;BME280;39353;42.864;12.014;2023-04-03T11:27:44;96752.57;;;21.16;47.09
52653;BME280;39353;42.864;12.014;2023-04-03T11:31:04;96752.03;;;21.16;46.89
52653;BME280;39353;42.864;12.014;2023-04-03T11:36:55;96746.59;;;21.13;46.95
52653;BME280;39353;42.864;12.014;2023-04-03T11:39:39;96746.26;;;21.11;46.73
52653;BME280;39353;42.864;12.014;2023-04-03T11:42:39;96742.32;;;21.10;46.60
52653;BME280;39353;42.864;12.014;2023-04-03T11:53:53;96732.56;;;21.07;46.66
52653;BME280;39353;42.864;12.014;2023-04-03T11:56:35;96726.66;;;21.07;46.58
52653;BME280;39353;42.864;12.014;2023-04-03T11:59:22;96725.45;;;21.06;46.51
52653;BME280;39353;42.864;12.014;2023-04-03T12:01:55;96723.48;;;21.05;46.43
52653;BME280;39353;42.864;12.014;2023-04-03T12:04:36;96722.98;;;21.04;46.69
52653;BME280;39353;42.864;12.014;2023-04-03T12:07:18;96712.59;;;21.03;46.61
52653;BME280;39353;42.864;12.014;2023-04-03T12:10:00;96716.13;;;21.03;46.68
52653;BME280;39353;42.864;12.014;2023-04-03T12:12:41;96712.27;;;21.03;46.47
52653;BME280;39353;42.864;12.014;2023-04-03T12:15:23;96719.27;;;21.02;46.54
52653;BME280;39353;42.864;12.014;2023-04-03T12:17:51;96716.17;;;21.02;46.48
52653;BME280;39353;42.864;12.014;2023-04-03T12:21:01;96709.02;;;21.01;46.72
52653;BME280;39353;42.864;12.014;2023-04-03T12:23:33;96715.28;;;21.01;46.66
52653;BME280;39353;42.864;12.014;2023-04-03T12:26:19;96715.77;;;21.01;46.56
52653;BME280;39353;42.864;12.014;2023-04-03T12:35:17;96706.35;;;20.98;46.72
52653;BME280;39353;42.864;12.014;2023-04-03T12:44:11;96692.96;;;21.01;46.58
52653;BME280;39353;42.864;12.014;2023-04-03T12:47:00;96691.78;;;21.01;46.71
52653;BME280;39353;42.864;12.014;2023-04-03T12:49:42;96688.23;;;21.02;46.88
52653;BME280;39353;42.864;12.014;2023-04-03T12:52:33;96685.58;;;21.03;46.64
52653;BME280;39353;42.864;12.014;2023-04-03T12:55:18;96679.27;;;21.03;46.52
52653;BME280;39353;42.864;12.014;2023-04-03T12:57:48;96676.06;;;21.04;46.74
52653;BME280;39353;42.864;12.014;2023-04-03T13:00:33;96670.44;;;21.01;44.13
52653;BME280;39353;42.864;12.014;2023-04-03T13:03:03;96665.25;;;21.00;45.06
52653;BME280;39353;42.864;12.014;2023-04-03T13:05:45;96668.41;;;20.97;44.31
52653;BME280;39353;42.864;12.014;2023-04-03T13:08:14;96668.86;;;20.97;44.50
52653;BME280;39353;42.864;12.014;2023-04-03T13:11:04;96671.27;;;20.97;44.47
52653;BME280;39353;42.864;12.014;2023-04-03T13:13:34;96670.50;;;20.97;44.89
52653;BME280;39353;42.864;12.014;2023-04-03T13:16:09;96665.21;;;20.97;44.74
52653;BME280;39353;42.864;12.014;2023-04-03T13:18:37;96659.45;;;20.98;44.77
52653;BME280;39353;42.864;12.014;2023-04-03T13:21:28;96661.73;;;20.99;45.02
52653;BME280;39353;42.864;12.014;2023-04-03T13:24:00;96662.02;;;21.00;45.01
52653;BME280;39353;42.864;12.014;2023-04-03T13:26:31;96659.56;;;20.99;45.15
52653;BME280;39353;42.864;12.014;2023-04-03T13:29:07;96654.06;;;21.00;45.00
52653;BME280;39353;42.864;12.014;2023-04-03T13:31:39;96657.08;;;20.97;45.17
52653;BME280;39353;42.864;12.014;2023-04-03T13:34:23;96658.36;;;20.96;45.12
52653;BME280;39353;42.864;12.014;2023-04-03T13:37:11;96650.50;;;20.95;45.11
52653;BME280;39353;42.864;12.014;2023-04-03T13:40:10;96659.75;;;20.94;45.25
52653;BME280;39353;42.864;12.014;2023-04-03T13:42:41;96654.59;;;20.92;45.36
52653;BME280;39353;42.864;12.014;2023-04-03T13:45:19;96651.38;;;20.92;45.46
52653;BME280;39353;42.864;12.014;2023-04-03T13:48:17;96650.05;;;20.91;45.45
52653;BME280;39353;42.864;12.014;2023-04-03T13:51:26;96653.55;;;20.91;45.41
52653;BME280;39353;42.864;12.014;2023-04-03T13:53:57;96647.00;;;20.91;45.52
52653;BME280;39353;42.864;12.014;2023-04-03T13:56:40;96646.44;;;20.90;45.58
52653;BME280;39353;42.864;12.014;2023-04-03T14:02:15;96639.75;;;20.89;45.51
52653;BME280;39353;42.864;12.014;2023-04-03T14:04:47;96643.17;;;20.90;44.75
52653;BME280;39353;42.864;12.014;2023-04-03T14:07:17;96648.65;;;20.92;44.98
52653;BME280;39353;42.864;12.014;2023-04-03T14:09:45;96643.96;;;20.96;45.18
52653;BME280;39353;42.864;12.014;2023-04-03T14:12:36;96649.13;;;21.02;45.24
52653;BME280;39353;42.864;12.014;2023-04-03T14:15:26;96650.01;;;21.09;45.48
52653;BME280;39353;42.864;12.014;2023-04-03T14:17:55;96649.30;;;21.13;44.94
52653;BME280;39353;42.864;12.014;2023-04-03T14:20:26;96647.55;;;21.12;44.49
52653;BME280;39353;42.864;12.014;2023-04-03T14:23:07;96646.52;;;21.12;44.58
52653;BME280;39353;42.864;12.014;2023-04-03T14:25:35;96644.72;;;21.13;44.25
52653;BME280;39353;42.864;12.014;2023-04-03T14:28:21;96648.84;;;21.15;44.04
52653;BME280;39353;42.864;12.014;2023-04-03T14:30:50;96646.55;;;21.15;44.01
52653;BME280;39353;42.864;12.014;2023-04-03T14:33:31;96649.70;;;21.17;44.06
52653;BME280;39353;42.864;12.014;2023-04-03T14:36:19;96644.21;;;21.19;43.64
52653;BME280;39353;42.864;12.014;2023-04-03T14:39:01;96643.67;;;21.20;43.23
52653;BME280;39353;42.864;12.014;2023-04-03T14:41:30;96642.05;;;21.21;43.24
52653;BME280;39353;42.864;12.014;2023-04-03T14:44:10;96639.73;;;21.22;43.23
52653;BME280;39353;42.864;12.014;2023-04-03T14:46:42;96639.00;;;21.24;43.51
52653;BME280;39353;42.864;12.014;2023-04-03T14:49:28;96642.13;;;21.25;42.98
52653;BME280;39353;42.864;12.014;2023-04-03T14:52:22;96646.48;;;21.25;43.38
52653;BME280;39353;42.864;12.014;2023-04-03T14:55:08;96641.64;;;21.26;43.14
52653;BME280;39353;42.864;12.014;2023-04-03T14:57:54;96647.35;;;21.27;42.99
52653;BME280;39353;42.864;12.014;2023-04-03T15:00:22;96650.43;;;21.29;42.99
52653;BME280;39353;42.864;12.014;2023-04-03T15:03:05;96653.13;;;21.31;43.11
52653;BME280;39353;42.864;12.014;2023-04-03T15:05:35;96649.61;;;21.34;42.74
52653;BME280;39353;42.864;12.014;2023-04-03T15:08:04;96646.18;;;21.35;43.06
52653;BME280;39353;42.864;12.014;2023-04-03T15:10:47;96650.89;;;21.35;43.23
52653;BME280;39353;42.864;12.014;2023-04-03T15:13:29;96650.29;;;21.35;43.16
52653;BME280;39353;42.864;12.014;2023-04-03T15:15:58;96648.10;;;21.35;43.27
52653;BME280;39353;42.864;12.014;2023-04-03T15:18:39;96654.73;;;21.36;42.53
52653;BME280;39353;42.864;12.014;2023-04-03T15:21:06;96658.27;;;21.36;41.85
52653;BME280;39353;42.864;12.014;2023-04-03T15:23:48;96659.91;;;21.39;41.95
52653;BME280;39353;42.864;12.014;2023-04-03T15:26:30;96652.08;;;21.41;41.80
52653;BME280;39353;42.864;12.014;2023-04-03T15:28:59;96657.05;;;21.42;41.01
52653;BME280;39353;42.864;12.014;2023-04-03T15:31:40;96666.36;;;21.40;41.53
52653;BME280;39353;42.864;12.014;2023-04-03T15:37:02;96662.43;;;21.37;41.97
52653;BME280;39353;42.864;12.014;2023-04-03T15:49:49;96654.62;;;21.32;39.91
52653;BME280;39353;42.864;12.014;2023-04-03T15:55:42;96664.35;;;21.30;40.72
52653;BME280;39353;42.864;12.014;2023-04-03T16:01:54;96670.14;;;21.30;41.05
52653;BME280;39353;42.864;12.014;2023-04-03T16:07:45;96682.80;;;21.30;41.42
52653;BME280;39353;42.864;12.014;2023-04-03T16:13:58;96682.89;;;21.33;41.41
52653;BME280;39353;42.864;12.014;2023-04-03T16:20:01;96688.93;;;21.35;41.63
52653;BME280;39353;42.864;12.014;2023-04-03T16:26:02;96691.23;;;21.36;41.69
52653;BME280;39353;42.864;12.014;2023-04-03T16:31:53;96692.95;;;21.41;41.54